sensor_id;sensor_type;location;lat;lon;timestamp;P1;durP1;ratioP1;P2;durP2;ratioP2
20397;SDS011;10358;49.590;11.030;2023-03-31T00:00:31;7.67;;;2.60;;
20397;SDS011;10358;49.590;11.030;2023-03-31T00:02:57;5.97;;;2.50;;
20397;SDS011;10358;49.590;11.030;2023-03-31T00:05:23;6.77;;;2.47;;
20397;SDS011;10358;49.590;11.030;2023-03-31T00:07:56;9.90;;;2.70;;
20397;SDS011;10358;49.590;11.030;2023-03-31T00:10:25;7.63;;;2.60;;
20397;SDS011;10358;49.590;11.030;2023-03-31T00:12:51;7.33;;;2.40;;
20397;SDS011;10358;49.590;11.030;2023-03-31T00:15:17;7.50;;;2.40;;
20397;SDS011;10358;49.590;11.030;2023-03-31T00:17:43;5.93;;;2.70;;
20397;SDS011;10358;49.590;11.030;2023-03-31T00:20:08;7.63;;;2.50;;
20397;SDS011;10358;49.590;11.030;2023-03-31T00:22:36;6.87;;;2.57;;
20397;SDS011;10358;49.590;11.030;2023-03-31T00:25:03;7.67;;;2.50;;
20397;SDS011;10358;49.590;11.030;2023-03-31T00:27:29;5.63;;;2.30;;
20397;SDS011;10358;49.590;11.030;2023-03-31T00:29:55;6.43;;;2.43;;
20397;SDS011;10358;49.590;11.030;2023-03-31T00:32:20;9.77;;;2.67;;
20397;SDS011;10358;49.590;11.030;2023-03-31T00:34:46;6.07;;;2.40;;
20397;SDS011;10358;49.590;11.030;2023-03-31T00:37:11;8.87;;;2.53;;
20397;SDS011;10358;49.590;11.030;2023-03-31T00:39:38;5.27;;;2.20;;
20397;SDS011;10358;49.590;11.030;2023-03-31T00:42:05;8.67;;;2.67;;
20397;SDS011;10358;49.590;11.030;2023-03-31T00:44:32;7.30;;;2.63;;
20397;SDS011;10358;49.590;11.030;2023-03-31T00:49:42;5.10;;;2.60;;
20397;SDS011;10358;49.590;11.030;2023-03-31T00:52:17;6.83;;;2.60;;
20397;SDS011;10358;49.590;11.030;2023-03-31T00:54:48;9.00;;;2.50;;
20397;SDS011;10358;49.590;11.030;2023-03-31T00:57:17;7.07;;;2.10;;
20397;SDS011;10358;49.590;11.030;2023-03-31T00:59:45;8.47;;;2.37;;
20397;SDS011;10358;49.590;11.030;2023-03-31T01:02:16;5.73;;;2.30;;
20397;SDS011;10358;49.590;11.030;2023-03-31T01:04:45;5.80;;;2.40;;
20397;SDS011;10358;49.590;11.030;2023-03-31T01:07:57;10.77;;;2.40;;
20397;SDS011;10358;49.590;11.030;2023-03-31T01:10:12;7.90;;;2.17;;
20397;SDS011;10358;49.590;11.030;2023-03-31T01:12:39;12.07;;;2.70;;
20397;SDS011;10358;49.590;11.030;2023-03-31T01:15:06;7.30;;;2.60;;
20397;SDS011;10358;49.590;11.030;2023-03-31T01:17:33;12.97;;;2.80;;
20397;SDS011;10358;49.590;11.030;2023-03-31T01:22:59;10.43;;;3.33;;
20397;SDS011;10358;49.590;11.030;2023-03-31T01:45:05;8.10;;;2.47;;
20397;SDS011;10358;49.590;11.030;2023-03-31T01:50:26;6.57;;;2.40;;
20397;SDS011;10358;49.590;11.030;2023-03-31T01:58:02;8.20;;;2.50;;
20397;SDS011;10358;49.590;11.030;2023-03-31T02:01:13;10.47;;;2.90;;
20397;SDS011;10358;49.590;11.030;2023-03-31T02:06:56;9.40;;;2.70;;
20397;SDS011;10358;49.590;11.030;2023-03-31T02:09:28;8.50;;;2.40;;
20397;SDS011;10358;49.590;11.030;2023-03-31T02:11:58;7.97;;;2.57;;
20397;SDS011;10358;49.590;11.030;2023-03-31T02:14:28;9.20;;;3.03;;
20397;SDS011;10358;49.590;11.030;2023-03-31T02:16:56;5.47;;;2.53;;
20397;SDS011;10358;49.590;11.030;2023-03-31T02:19:24;11.23;;;2.70;;
20397;SDS011;10358;49.590;11.030;2023-03-31T02:21:53;8.47;;;2.40;;
20397;SDS011;10358;49.590;11.030;2023-03-31T02:24:20;7.33;;;2.47;;
20397;SDS011;10358;49.590;11.030;2023-03-31T02:26:58;6.00;;;2.40;;
20397;SDS011;10358;49.590;11.030;2023-03-31T02:29:28;10.60;;;2.63;;
20397;SDS011;10358;49.590;11.030;2023-03-31T02:32:15;7.50;;;2.37;;
20397;SDS011;10358;49.590;11.030;2023-03-31T02:34:45;8.10;;;2.10;;
20397;SDS011;10358;49.590;11.030;2023-03-31T02:37:11;7.53;;;2.87;;
20397;SDS011;10358;49.590;11.030;2023-03-31T02:39:39;7.20;;;2.40;;
20397;SDS011;10358;49.590;11.030;2023-03-31T02:42:07;8.70;;;2.43;;
20397;SDS011;10358;49.590;11.030;2023-03-31T02:44:34;7.40;;;2.43;;
20397;SDS011;10358;49.590;11.030;2023-03-31T02:47:05;4.97;;;2.00;;
20397;SDS011;10358;49.590;11.030;2023-03-31T02:49:33;5.97;;;2.43;;
20397;SDS011;10358;49.590;11.030;2023-03-31T03:02:55;9.37;;;2.23;;
20397;SDS011;10358;49.590;11.030;2023-03-31T03:13:44;7.17;;;2.40;;
20397;SDS011;10358;49.590;11.030;2023-03-31T03:16:20;9.93;;;2.13;;
20397;SDS011;10358;49.590;11.030;2023-03-31T03:18:58;10.50;;;2.70;;
20397;SDS011;10358;49.590;11.030;2023-03-31T03:21:25;7.47;;;2.20;;
20397;SDS011;10358;49.590;11.030;2023-03-31T03:23:51;9.10;;;2.60;;
20397;SDS011;10358;49.590;11.030;2023-03-31T03:26:17;10.77;;;3.10;;
20397;SDS011;10358;49.590;11.030;2023-03-31T03:28:47;6.60;;;2.27;;
20397;SDS011;10358;49.590;11.030;2023-03-31T03:31:16;9.37;;;2.43;;
20397;SDS011;10358;49.590;11.030;2023-03-31T03:33:43;9.53;;;2.37;;
20397;SDS011;10358;49.590;11.030;2023-03-31T03:36:08;9.43;;;2.77;;
20397;SDS011;10358;49.590;11.030;2023-03-31T03:38:34;7.97;;;2.20;;
20397;SDS011;10358;49.590;11.030;2023-03-31T03:41:00;9.60;;;2.93;;
20397;SDS011;10358;49.590;11.030;2023-03-31T03:43:26;9.40;;;3.10;;
20397;SDS011;10358;49.590;11.030;2023-03-31T03:45:52;8.53;;;2.90;;
20397;SDS011;10358;49.590;11.030;2023-03-31T03:48:17;7.00;;;2.80;;
20397;SDS011;10358;49.590;11.030;2023-03-31T03:50:44;10.77;;;2.90;;
20397;SDS011;10358;49.590;11.030;2023-03-31T03:53:10;7.73;;;2.67;;
20397;SDS011;10358;49.590;11.030;2023-03-31T03:55:37;6.97;;;2.70;;
20397;SDS011;10358;49.590;11.030;2023-03-31T03:58:02;10.63;;;2.73;;
20397;SDS011;10358;49.590;11.030;2023-03-31T04:00:28;6.20;;;2.20;;
20397;SDS011;10358;49.590;11.030;2023-03-31T04:02:54;5.90;;;2.10;;
20397;SDS011;10358;49.590;11.030;2023-03-31T04:05:20;10.20;;;2.40;;
20397;SDS011;10358;49.590;11.030;2023-03-31T04:07:45;9.37;;;2.63;;
20397;SDS011;10358;49.590;11.030;2023-03-31T04:10:11;9.47;;;2.70;;
20397;SDS011;10358;49.590;11.030;2023-03-31T04:12:37;11.43;;;2.50;;
20397;SDS011;10358;49.590;11.030;2023-03-31T04:15:03;7.47;;;2.30;;
20397;SDS011;10358;49.590;11.030;2023-03-31T04:17:29;6.83;;;1.90;;
20397;SDS011;10358;49.590;11.030;2023-03-31T04:19:59;13.77;;;2.20;;
20397;SDS011;10358;49.590;11.030;2023-03-31T04:22:28;9.13;;;2.30;;
20397;SDS011;10358;49.590;11.030;2023-03-31T04:24:58;7.03;;;2.40;;
20397;SDS011;10358;49.590;11.030;2023-03-31T04:27:25;12.63;;;2.60;;
20397;SDS011;10358;49.590;11.030;2023-03-31T04:29:52;7.67;;;2.70;;
20397;SDS011;10358;49.590;11.030;2023-03-31T04:32:20;8.43;;;2.37;;
20397;SDS011;10358;49.590;11.030;2023-03-31T04:34:47;7.43;;;2.30;;
20397;SDS011;10358;49.590;11.030;2023-03-31T04:37:14;7.63;;;2.43;;
20397;SDS011;10358;49.590;11.030;2023-03-31T04:39:41;8.80;;;2.47;;
20397;SDS011;10358;49.590;11.030;2023-03-31T04:42:10;7.40;;;2.17;;
20397;SDS011;10358;49.590;11.030;2023-03-31T04:44:36;5.20;;;1.97;;
20397;SDS011;10358;49.590;11.030;2023-03-31T04:47:01;8.33;;;2.33;;
20397;SDS011;10358;49.590;11.030;2023-03-31T04:49:27;8.57;;;2.40;;
20397;SDS011;10358;49.590;11.030;2023-03-31T04:51:53;9.33;;;2.40;;
20397;SDS011;10358;49.590;11.030;2023-03-31T04:54:18;4.60;;;2.47;;
20397;SDS011;10358;49.590;11.030;2023-03-31T04:56:44;11.40;;;2.20;;
20397;SDS011;10358;49.590;11.030;2023-03-31T04:59:10;8.53;;;2.63;;
20397;SDS011;10358;49.590;11.030;2023-03-31T05:01:35;6.67;;;2.00;;
20397;SDS011;10358;49.590;11.030;2023-03-31T05:04:01;10.40;;;2.87;;
20397;SDS011;10358;49.590;11.030;2023-03-31T05:06:27;8.07;;;2.30;;
20397;SDS011;10358;49.590;11.030;2023-03-31T05:08:53;7.10;;;2.30;;
20397;SDS011;10358;49.590;11.030;2023-03-31T05:11:19;7.10;;;2.50;;
20397;SDS011;10358;49.590;11.030;2023-03-31T05:13:45;11.13;;;2.60;;
20397;SDS011;10358;49.590;11.030;2023-03-31T05:16:11;11.37;;;2.60;;
20397;SDS011;10358;49.590;11.030;2023-03-31T05:18:38;9.53;;;2.47;;
20397;SDS011;10358;49.590;11.030;2023-03-31T05:21:13;7.77;;;2.33;;
20397;SDS011;10358;49.590;11.030;2023-03-31T05:23:40;9.20;;;2.70;;
20397;SDS011;10358;49.590;11.030;2023-03-31T05:26:06;8.30;;;2.47;;
20397;SDS011;10358;49.590;11.030;2023-03-31T05:28:33;13.00;;;2.83;;
20397;SDS011;10358;49.590;11.030;2023-03-31T05:31:00;7.93;;;2.83;;
20397;SDS011;10358;49.590;11.030;2023-03-31T05:33:26;8.23;;;2.53;;
20397;SDS011;10358;49.590;11.030;2023-03-31T05:35:52;9.50;;;2.70;;
20397;SDS011;10358;49.590;11.030;2023-03-31T05:38:18;13.77;;;2.90;;
20397;SDS011;10358;49.590;11.030;2023-03-31T05:40:43;10.53;;;2.67;;
20397;SDS011;10358;49.590;11.030;2023-03-31T05:43:09;6.87;;;2.57;;
20397;SDS011;10358;49.590;11.030;2023-03-31T05:45:34;9.77;;;2.67;;
20397;SDS011;10358;49.590;11.030;2023-03-31T05:48:00;7.13;;;2.50;;
20397;SDS011;10358;49.590;11.030;2023-03-31T05:50:26;9.63;;;2.67;;
20397;SDS011;10358;49.590;11.030;2023-03-31T05:52:51;9.43;;;2.63;;
20397;SDS011;10358;49.590;11.030;2023-03-31T05:55:17;9.93;;;2.60;;
20397;SDS011;10358;49.590;11.030;2023-03-31T05:57:42;6.13;;;2.60;;
20397;SDS011;10358;49.590;11.030;2023-03-31T06:00:08;7.70;;;2.60;;
20397;SDS011;10358;49.590;11.030;2023-03-31T06:02:35;7.57;;;2.80;;
20397;SDS011;10358;49.590;11.030;2023-03-31T06:05:01;13.97;;;2.70;;
20397;SDS011;10358;49.590;11.030;2023-03-31T06:07:27;14.67;;;3.50;;
20397;SDS011;10358;49.590;11.030;2023-03-31T06:09:53;13.20;;;3.03;;
20397;SDS011;10358;49.590;11.030;2023-03-31T06:12:18;9.23;;;2.70;;
20397;SDS011;10358;49.590;11.030;2023-03-31T06:14:44;13.63;;;2.87;;
20397;SDS011;10358;49.590;11.030;2023-03-31T06:17:09;10.03;;;2.47;;
20397;SDS011;10358;49.590;11.030;2023-03-31T06:19:35;8.37;;;2.60;;
20397;SDS011;10358;49.590;11.030;2023-03-31T06:22:01;9.50;;;2.90;;
20397;SDS011;10358;49.590;11.030;2023-03-31T06:24:26;9.27;;;2.93;;
20397;SDS011;10358;49.590;11.030;2023-03-31T06:26:52;7.23;;;3.30;;
20397;SDS011;10358;49.590;11.030;2023-03-31T06:29:17;7.80;;;3.43;;
20397;SDS011;10358;49.590;11.030;2023-03-31T06:31:43;9.10;;;3.50;;
20397;SDS011;10358;49.590;11.030;2023-03-31T06:34:09;14.40;;;3.50;;
20397;SDS011;10358;49.590;11.030;2023-03-31T06:36:34;9.70;;;3.70;;
20397;SDS011;10358;49.590;11.030;2023-03-31T06:39:00;11.53;;;3.57;;
20397;SDS011;10358;49.590;11.030;2023-03-31T06:41:25;10.50;;;3.33;;
20397;SDS011;10358;49.590;11.030;2023-03-31T06:43:51;10.83;;;3.50;;
20397;SDS011;10358;49.590;11.030;2023-03-31T06:46:16;9.70;;;3.93;;
20397;SDS011;10358;49.590;11.030;2023-03-31T06:48:42;9.20;;;3.60;;
20397;SDS011;10358;49.590;11.030;2023-03-31T06:51:08;15.27;;;3.70;;
20397;SDS011;10358;49.590;11.030;2023-03-31T06:53:35;8.73;;;3.40;;
20397;SDS011;10358;49.590;11.030;2023-03-31T06:56:01;13.90;;;3.40;;
20397;SDS011;10358;49.590;11.030;2023-03-31T06:58:27;12.20;;;3.40;;
20397;SDS011;10358;49.590;11.030;2023-03-31T07:00:52;12.07;;;3.17;;
20397;SDS011;10358;49.590;11.030;2023-03-31T07:03:18;8.60;;;3.33;;
20397;SDS011;10358;49.590;11.030;2023-03-31T07:05:52;13.90;;;3.37;;
20397;SDS011;10358;49.590;11.030;2023-03-31T07:08:18;12.40;;;3.33;;
20397;SDS011;10358;49.590;11.030;2023-03-31T07:10:45;8.57;;;3.33;;
20397;SDS011;10358;49.590;11.030;2023-03-31T07:13:13;4.73;;;3.03;;
20397;SDS011;10358;49.590;11.030;2023-03-31T07:15:40;8.37;;;3.03;;
20397;SDS011;10358;49.590;11.030;2023-03-31T07:18:05;11.10;;;3.87;;
20397;SDS011;10358;49.590;11.030;2023-03-31T07:20:31;15.10;;;3.90;;
20397;SDS011;10358;49.590;11.030;2023-03-31T07:22:57;9.83;;;3.67;;
20397;SDS011;10358;49.590;11.030;2023-03-31T07:25:23;10.97;;;3.30;;
20397;SDS011;10358;49.590;11.030;2023-03-31T07:27:49;14.57;;;3.80;;
20397;SDS011;10358;49.590;11.030;2023-03-31T07:30:16;10.20;;;3.80;;
20397;SDS011;10358;49.590;11.030;2023-03-31T07:32:45;11.63;;;4.03;;
20397;SDS011;10358;49.590;11.030;2023-03-31T07:35:11;13.37;;;3.73;;
20397;SDS011;10358;49.590;11.030;2023-03-31T07:37:38;13.13;;;3.87;;
20397;SDS011;10358;49.590;11.030;2023-03-31T07:40:06;10.00;;;3.60;;
20397;SDS011;10358;49.590;11.030;2023-03-31T07:42:33;9.57;;;4.23;;
20397;SDS011;10358;49.590;11.030;2023-03-31T07:44:59;14.20;;;4.13;;
20397;SDS011;10358;49.590;11.030;2023-03-31T07:47:26;15.87;;;3.83;;
20397;SDS011;10358;49.590;11.030;2023-03-31T07:49:52;8.63;;;4.40;;
20397;SDS011;10358;49.590;11.030;2023-03-31T07:52:18;13.23;;;4.77;;
20397;SDS011;10358;49.590;11.030;2023-03-31T07:54:44;13.07;;;4.40;;
20397;SDS011;10358;49.590;11.030;2023-03-31T07:57:10;11.07;;;4.50;;
20397;SDS011;10358;49.590;11.030;2023-03-31T07:59:36;12.53;;;4.70;;
20397;SDS011;10358;49.590;11.030;2023-03-31T08:02:01;12.83;;;4.50;;
20397;SDS011;10358;49.590;11.030;2023-03-31T08:04:27;14.03;;;5.20;;
20397;SDS011;10358;49.590;11.030;2023-03-31T08:06:53;12.27;;;4.80;;
20397;SDS011;10358;49.590;11.030;2023-03-31T08:09:18;10.83;;;5.17;;
20397;SDS011;10358;49.590;11.030;2023-03-31T08:11:46;13.20;;;4.80;;
20397;SDS011;10358;49.590;11.030;2023-03-31T08:14:12;15.03;;;5.40;;
20397;SDS011;10358;49.590;11.030;2023-03-31T08:16:38;12.00;;;5.20;;
20397;SDS011;10358;49.590;11.030;2023-03-31T08:19:03;15.30;;;5.40;;
20397;SDS011;10358;49.590;11.030;2023-03-31T08:21:29;12.40;;;5.60;;
20397;SDS011;10358;49.590;11.030;2023-03-31T08:23:55;15.87;;;5.90;;
20397;SDS011;10358;49.590;11.030;2023-03-31T08:26:21;18.97;;;5.60;;
20397;SDS011;10358;49.590;11.030;2023-03-31T08:28:48;11.50;;;5.30;;
20397;SDS011;10358;49.590;11.030;2023-03-31T08:31:14;13.70;;;5.43;;
20397;SDS011;10358;49.590;11.030;2023-03-31T08:33:41;15.20;;;5.93;;
20397;SDS011;10358;49.590;11.030;2023-03-31T08:36:07;16.43;;;5.80;;
20397;SDS011;10358;49.590;11.030;2023-03-31T08:38:38;13.97;;;5.80;;
20397;SDS011;10358;49.590;11.030;2023-03-31T08:41:07;11.83;;;5.57;;
20397;SDS011;10358;49.590;11.030;2023-03-31T08:43:40;17.40;;;6.37;;
20397;SDS011;10358;49.590;11.030;2023-03-31T08:46:10;20.77;;;6.23;;
20397;SDS011;10358;49.590;11.030;2023-03-31T08:48:47;17.87;;;6.30;;
20397;SDS011;10358;49.590;11.030;2023-03-31T08:51:21;14.67;;;5.30;;
20397;SDS011;10358;49.590;11.030;2023-03-31T08:54:35;14.50;;;5.90;;
20397;SDS011;10358;49.590;11.030;2023-03-31T08:56:43;9.93;;;4.90;;
20397;SDS011;10358;49.590;11.030;2023-03-31T08:59:17;10.80;;;4.63;;
20397;SDS011;10358;49.590;11.030;2023-03-31T09:02:15;15.57;;;5.27;;
20397;SDS011;10358;49.590;11.030;2023-03-31T09:07:48;11.60;;;5.10;;
20397;SDS011;10358;49.590;11.030;2023-03-31T09:10:34;11.40;;;4.70;;
20397;SDS011;10358;49.590;11.030;2023-03-31T09:16:15;11.77;;;5.00;;
20397;SDS011;10358;49.590;11.030;2023-03-31T09:18:57;11.67;;;4.70;;
20397;SDS011;10358;49.590;11.030;2023-03-31T09:21:30;11.33;;;4.33;;
20397;SDS011;10358;49.590;11.030;2023-03-31T09:27:02;12.13;;;4.67;;
20397;SDS011;10358;49.590;11.030;2023-03-31T09:34:40;9.07;;;4.03;;
20397;SDS011;10358;49.590;11.030;2023-03-31T09:37:08;12.10;;;4.63;;
20397;SDS011;10358;49.590;11.030;2023-03-31T09:39:35;8.93;;;4.27;;
20397;SDS011;10358;49.590;11.030;2023-03-31T09:42:02;7.93;;;3.90;;
20397;SDS011;10358;49.590;11.030;2023-03-31T09:47:20;10.80;;;4.47;;
20397;SDS011;10358;49.590;11.030;2023-03-31T09:49:55;6.67;;;3.70;;
20397;SDS011;10358;49.590;11.030;2023-03-31T09:54:53;8.67;;;3.33;;
20397;SDS011;10358;49.590;11.030;2023-03-31T09:57:25;9.40;;;4.30;;
20397;SDS011;10358;49.590;11.030;2023-03-31T10:00:00;5.57;;;3.40;;
20397;SDS011;10358;49.590;11.030;2023-03-31T10:02:37;7.30;;;3.20;;
20397;SDS011;10358;49.590;11.030;2023-03-31T10:05:04;5.37;;;3.00;;
20397;SDS011;10358;49.590;11.030;2023-03-31T10:07:32;8.63;;;3.33;;
20397;SDS011;10358;49.590;11.030;2023-03-31T10:09:59;5.97;;;2.87;;
20397;SDS011;10358;49.590;11.030;2023-03-31T10:12:27;8.00;;;3.20;;
20397;SDS011;10358;49.590;11.030;2023-03-31T10:14:59;5.83;;;2.80;;
20397;SDS011;10358;49.590;11.030;2023-03-31T10:17:39;8.53;;;2.60;;
20397;SDS011;10358;49.590;11.030;2023-03-31T10:20:16;5.20;;;2.97;;
20397;SDS011;10358;49.590;11.030;2023-03-31T10:22:52;8.80;;;3.30;;
20397;SDS011;10358;49.590;11.030;2023-03-31T10:25:21;4.63;;;2.90;;
20397;SDS011;10358;49.590;11.030;2023-03-31T10:27:52;5.72;;;2.65;;
20397;SDS011;10358;49.590;11.030;2023-03-31T10:30:20;7.30;;;2.57;;
20397;SDS011;10358;49.590;11.030;2023-03-31T10:32:48;7.63;;;2.50;;
20397;SDS011;10358;49.590;11.030;2023-03-31T10:37:47;9.53;;;2.70;;
20397;SDS011;10358;49.590;11.030;2023-03-31T10:40:22;6.78;;;2.83;;
20397;SDS011;10358;49.590;11.030;2023-03-31T10:42:57;7.47;;;2.10;;
20397;SDS011;10358;49.590;11.030;2023-03-31T10:45:35;8.33;;;2.63;;
20397;SDS011;10358;49.590;11.030;2023-03-31T10:48:16;5.30;;;2.30;;
20397;SDS011;10358;49.590;11.030;2023-03-31T10:50:47;10.00;;;2.35;;
20397;SDS011;10358;49.590;11.030;2023-03-31T10:53:13;6.95;;;2.10;;
20397;SDS011;10358;49.590;11.030;2023-03-31T10:56:05;11.70;;;2.20;;
20397;SDS011;10358;49.590;11.030;2023-03-31T11:02:07;8.83;;;1.90;;
20397;SDS011;10358;49.590;11.030;2023-03-31T11:11:45;6.82;;;1.90;;
20397;SDS011;10358;49.590;11.030;2023-03-31T11:19:19;9.80;;;1.95;;
20397;SDS011;10358;49.590;11.030;2023-03-31T11:22:11;6.38;;;1.83;;
20397;SDS011;10358;49.590;11.030;2023-03-31T11:25:15;4.70;;;1.50;;
20397;SDS011;10358;49.590;11.030;2023-03-31T11:27:58;5.03;;;1.47;;
20397;SDS011;10358;49.590;11.030;2023-03-31T11:30:35;6.30;;;1.40;;
20397;SDS011;10358;49.590;11.030;2023-03-31T11:33:21;6.53;;;1.40;;
20397;SDS011;10358;49.590;11.030;2023-03-31T11:35:53;6.50;;;1.83;;
20397;SDS011;10358;49.590;11.030;2023-03-31T11:38:50;6.10;;;1.40;;
20397;SDS011;10358;49.590;11.030;2023-03-31T11:44:04;5.83;;;1.70;;
20397;SDS011;10358;49.590;11.030;2023-03-31T11:46:39;7.43;;;1.67;;
20397;SDS011;10358;49.590;11.030;2023-03-31T11:49:29;4.30;;;1.60;;
20397;SDS011;10358;49.590;11.030;2023-03-31T11:52:15;3.97;;;1.27;;
20397;SDS011;10358;49.590;11.030;2023-03-31T11:54:53;4.47;;;1.20;;
20397;SDS011;10358;49.590;11.030;2023-03-31T11:57:28;2.20;;;1.20;;
20397;SDS011;10358;49.590;11.030;2023-03-31T12:00:05;2.70;;;1.07;;
20397;SDS011;10358;49.590;11.030;2023-03-31T12:02:51;2.73;;;1.23;;
20397;SDS011;10358;49.590;11.030;2023-03-31T12:05:24;3.03;;;0.97;;
20397;SDS011;10358;49.590;11.030;2023-03-31T12:10:35;2.97;;;0.90;;
20397;SDS011;10358;49.590;11.030;2023-03-31T12:18:32;3.03;;;0.80;;
20397;SDS011;10358;49.590;11.030;2023-03-31T12:21:03;1.60;;;0.90;;
20397;SDS011;10358;49.590;11.030;2023-03-31T12:23:32;2.53;;;1.20;;
20397;SDS011;10358;49.590;11.030;2023-03-31T12:28:33;2.63;;;0.90;;
20397;SDS011;10358;49.590;11.030;2023-03-31T12:31:01;3.50;;;0.90;;
20397;SDS011;10358;49.590;11.030;2023-03-31T12:33:39;3.60;;;1.10;;
20397;SDS011;10358;49.590;11.030;2023-03-31T12:52:49;4.47;;;1.00;;
20397;SDS011;10358;49.590;11.030;2023-03-31T12:57:50;1.77;;;0.80;;
20397;SDS011;10358;49.590;11.030;2023-03-31T13:00:26;3.43;;;1.00;;
20397;SDS011;10358;49.590;11.030;2023-03-31T13:03:34;1.97;;;1.00;;
20397;SDS011;10358;49.590;11.030;2023-03-31T13:05:58;3.93;;;0.90;;
20397;SDS011;10358;49.590;11.030;2023-03-31T13:11:20;3.10;;;1.20;;
20397;SDS011;10358;49.590;11.030;2023-03-31T13:14:16;2.90;;;0.93;;
20397;SDS011;10358;49.590;11.030;2023-03-31T13:16:46;3.80;;;1.00;;
20397;SDS011;10358;49.590;11.030;2023-03-31T13:19:30;4.33;;;0.90;;
20397;SDS011;10358;49.590;11.030;2023-03-31T13:21:58;2.27;;;0.90;;
20397;SDS011;10358;49.590;11.030;2023-03-31T13:24:25;3.90;;;1.13;;
20397;SDS011;10358;49.590;11.030;2023-03-31T13:26:53;5.00;;;1.20;;
20397;SDS011;10358;49.590;11.030;2023-03-31T13:29:24;6.30;;;1.10;;
20397;SDS011;10358;49.590;11.030;2023-03-31T13:46:04;3.87;;;1.20;;
20397;SDS011;10358;49.590;11.030;2023-03-31T14:07:57;5.33;;;0.93;;
20397;SDS011;10358;49.590;11.030;2023-03-31T14:10:28;4.80;;;1.17;;
20397;SDS011;10358;49.590;11.030;2023-03-31T14:13:10;3.20;;;0.90;;
20397;SDS011;10358;49.590;11.030;2023-03-31T14:18:19;5.15;;;1.20;;
20397;SDS011;10358;49.590;11.030;2023-03-31T14:21:18;6.57;;;1.20;;
20397;SDS011;10358;49.590;11.030;2023-03-31T14:31:54;5.60;;;1.40;;
20397;SDS011;10358;49.590;11.030;2023-03-31T14:37:17;2.50;;;1.08;;
20397;SDS011;10358;49.590;11.030;2023-03-31T14:39:46;5.90;;;1.30;;
20397;SDS011;10358;49.590;11.030;2023-03-31T14:42:15;4.75;;;1.15;;
20397;SDS011;10358;49.590;11.030;2023-03-31T14:44:43;4.15;;;1.20;;
20397;SDS011;10358;49.590;11.030;2023-03-31T14:47:19;3.38;;;1.00;;
20397;SDS011;10358;49.590;11.030;2023-03-31T14:49:46;2.83;;;1.00;;
20397;SDS011;10358;49.590;11.030;2023-03-31T14:52:13;6.83;;;1.37;;
20397;SDS011;10358;49.590;11.030;2023-03-31T14:54:43;4.28;;;0.90;;
20397;SDS011;10358;49.590;11.030;2023-03-31T14:57:12;4.18;;;1.38;;
20397;SDS011;10358;49.590;11.030;2023-03-31T14:59:41;5.13;;;1.10;;
20397;SDS011;10358;49.590;11.030;2023-03-31T15:02:09;8.20;;;1.20;;
20397;SDS011;10358;49.590;11.030;2023-03-31T15:04:41;2.28;;;0.95;;
20397;SDS011;10358;49.590;11.030;2023-03-31T15:07:10;3.75;;;0.90;;
20397;SDS011;10358;49.590;11.030;2023-03-31T15:09:37;4.80;;;1.10;;
20397;SDS011;10358;49.590;11.030;2023-03-31T15:12:06;6.18;;;0.93;;
20397;SDS011;10358;49.590;11.030;2023-03-31T15:14:39;3.08;;;0.90;;
20397;SDS011;10358;49.590;11.030;2023-03-31T15:17:21;2.95;;;1.02;;
20397;SDS011;10358;49.590;11.030;2023-03-31T15:19:53;3.40;;;0.95;;
20397;SDS011;10358;49.590;11.030;2023-03-31T15:22:21;3.47;;;1.10;;
20397;SDS011;10358;49.590;11.030;2023-03-31T15:24:49;5.03;;;1.10;;
20397;SDS011;10358;49.590;11.030;2023-03-31T15:29:59;3.90;;;1.13;;
20397;SDS011;10358;49.590;11.030;2023-03-31T15:32:27;3.58;;;1.20;;
20397;SDS011;10358;49.590;11.030;2023-03-31T15:34:55;5.95;;;1.30;;
20397;SDS011;10358;49.590;11.030;2023-03-31T15:37:29;6.65;;;1.23;;
20397;SDS011;10358;49.590;11.030;2023-03-31T15:40:01;6.50;;;1.30;;
20397;SDS011;10358;49.590;11.030;2023-03-31T15:42:33;8.65;;;1.27;;
20397;SDS011;10358;49.590;11.030;2023-03-31T15:47:46;3.08;;;0.90;;
20397;SDS011;10358;49.590;11.030;2023-03-31T15:50:16;4.93;;;1.17;;
20397;SDS011;10358;49.590;11.030;2023-03-31T15:52:46;3.45;;;0.90;;
20397;SDS011;10358;49.590;11.030;2023-03-31T15:55:39;5.53;;;1.00;;
20397;SDS011;10358;49.590;11.030;2023-03-31T15:58:07;3.85;;;1.13;;
20397;SDS011;10358;49.590;11.030;2023-03-31T16:00:40;5.15;;;1.33;;
20397;SDS011;10358;49.590;11.030;2023-03-31T16:03:27;4.28;;;1.00;;
20397;SDS011;10358;49.590;11.030;2023-03-31T16:06:00;5.88;;;1.20;;
20397;SDS011;10358;49.590;11.030;2023-03-31T16:08:42;6.07;;;1.30;;
20397;SDS011;10358;49.590;11.030;2023-03-31T16:11:21;8.55;;;2.15;;
20397;SDS011;10358;49.590;11.030;2023-03-31T16:13:57;4.30;;;1.10;;
20397;SDS011;10358;49.590;11.030;2023-03-31T16:16:25;4.00;;;1.20;;
20397;SDS011;10358;49.590;11.030;2023-03-31T16:18:54;5.95;;;1.75;;
20397;SDS011;10358;49.590;11.030;2023-03-31T16:21:28;4.40;;;1.20;;
20397;SDS011;10358;49.590;11.030;2023-03-31T16:23:59;3.55;;;1.00;;
20397;SDS011;10358;49.590;11.030;2023-03-31T16:26:26;4.28;;;1.20;;
20397;SDS011;10358;49.590;11.030;2023-03-31T16:28:53;1.92;;;0.90;;
20397;SDS011;10358;49.590;11.030;2023-03-31T16:31:28;8.15;;;1.33;;
20397;SDS011;10358;49.590;11.030;2023-03-31T16:33:59;4.70;;;1.17;;
20397;SDS011;10358;49.590;11.030;2023-03-31T16:36:25;3.95;;;1.20;;
20397;SDS011;10358;49.590;11.030;2023-03-31T16:38:51;6.80;;;1.27;;
20397;SDS011;10358;49.590;11.030;2023-03-31T16:41:23;7.43;;;1.20;;
20397;SDS011;10358;49.590;11.030;2023-03-31T16:43:51;3.25;;;1.30;;
20397;SDS011;10358;49.590;11.030;2023-03-31T16:46:18;4.38;;;1.00;;
20397;SDS011;10358;49.590;11.030;2023-03-31T16:48:44;5.03;;;1.13;;
20397;SDS011;10358;49.590;11.030;2023-03-31T16:51:10;5.03;;;1.20;;
20397;SDS011;10358;49.590;11.030;2023-03-31T16:53:35;5.25;;;1.40;;
20397;SDS011;10358;49.590;11.030;2023-03-31T16:56:02;5.38;;;1.55;;
20397;SDS011;10358;49.590;11.030;2023-03-31T16:58:28;4.97;;;1.33;;
20397;SDS011;10358;49.590;11.030;2023-03-31T17:00:55;6.30;;;1.40;;
20397;SDS011;10358;49.590;11.030;2023-03-31T17:03:22;5.40;;;1.17;;
20397;SDS011;10358;49.590;11.030;2023-03-31T17:05:49;4.95;;;1.50;;
20397;SDS011;10358;49.590;11.030;2023-03-31T17:08:17;6.68;;;1.40;;
20397;SDS011;10358;49.590;11.030;2023-03-31T17:10:49;2.60;;;0.97;;
20397;SDS011;10358;49.590;11.030;2023-03-31T17:13:32;4.57;;;1.10;;
20397;SDS011;10358;49.590;11.030;2023-03-31T17:15:58;4.53;;;1.37;;
20397;SDS011;10358;49.590;11.030;2023-03-31T17:18:25;7.50;;;1.27;;
20397;SDS011;10358;49.590;11.030;2023-03-31T17:20:51;2.92;;;0.98;;
20397;SDS011;10358;49.590;11.030;2023-03-31T17:23:17;5.77;;;1.50;;
20397;SDS011;10358;49.590;11.030;2023-03-31T17:25:47;6.90;;;1.30;;
20397;SDS011;10358;49.590;11.030;2023-03-31T17:28:14;6.10;;;1.50;;
20397;SDS011;10358;49.590;11.030;2023-03-31T17:30:40;8.03;;;1.30;;
20397;SDS011;10358;49.590;11.030;2023-03-31T17:33:08;7.97;;;1.50;;
20397;SDS011;10358;49.590;11.030;2023-03-31T17:35:35;5.33;;;1.17;;
20397;SDS011;10358;49.590;11.030;2023-03-31T17:38:01;6.87;;;1.40;;
20397;SDS011;10358;49.590;11.030;2023-03-31T17:40:28;4.63;;;1.60;;
20397;SDS011;10358;49.590;11.030;2023-03-31T17:42:57;6.00;;;1.50;;
20397;SDS011;10358;49.590;11.030;2023-03-31T17:45:23;8.27;;;1.40;;
20397;SDS011;10358;49.590;11.030;2023-03-31T17:47:49;8.37;;;1.60;;